sensor_id;sensor_type;location;lat;lon;timestamp;temperature;humidity
23703;DHT22;12030;50.376;8.762;2022-07-04T00:02:18;18.20;99.90
23703;DHT22;12030;50.376;8.762;2022-07-04T00:04:44;18.20;99.90
23703;DHT22;12030;50.376;8.762;2022-07-04T00:07:09;18.20;99.90
23703;DHT22;12030;50.376;8.762;2022-07-04T00:09:35;18.20;99.90
23703;DHT22;12030;50.376;8.762;2022-07-04T00:12:00;18.20;99.90
23703;DHT22;12030;50.376;8.762;2022-07-04T00:14:26;18.10;99.90
23703;DHT22;12030;50.376;8.762;2022-07-04T00:16:52;18.10;99.90
23703;DHT22;12030;50.376;8.762;2022-07-04T00:19:17;18.10;99.90
23703;DHT22;12030;50.376;8.762;2022-07-04T00:21:43;18.00;99.90
23703;DHT22;12030;50.376;8.762;2022-07-04T00:24:08;17.80;99.90
23703;DHT22;12030;50.376;8.762;2022-07-04T00:26:34;17.70;99.90
23703;DHT22;12030;50.376;8.762;2022-07-04T00:29:00;17.70;99.90
23703;DHT22;12030;50.376;8.762;2022-07-04T00:31:25;17.50;99.90
23703;DHT22;12030;50.376;8.762;2022-07-04T00:33:51;17.60;99.90
23703;DHT22;12030;50.376;8.762;2022-07-04T00:36:16;17.60;99.90
23703;DHT22;12030;50.376;8.762;2022-07-04T00:38:42;17.50;99.90
23703;DHT22;12030;50.376;8.762;2022-07-04T00:41:07;17.50;99.90
23703;DHT22;12030;50.376;8.762;2022-07-04T00:43:33;17.40;99.90
23703;DHT22;12030;50.376;8.762;2022-07-04T00:46:03;17.40;99.90
23703;DHT22;12030;50.376;8.762;2022-07-04T00:48:29;17.30;99.90
23703;DHT22;12030;50.376;8.762;2022-07-04T00:50:55;17.40;99.90
23703;DHT22;12030;50.376;8.762;2022-07-04T00:53:21;17.30;99.90
23703;DHT22;12030;50.376;8.762;2022-07-04T00:55:50;17.30;99.90
23703;DHT22;12030;50.376;8.762;2022-07-04T00:58:19;17.20;99.90
23703;DHT22;12030;50.376;8.762;2022-07-04T01:00:45;17.10;99.90
23703;DHT22;12030;50.376;8.762;2022-07-04T01:03:11;17.10;99.90
23703;DHT22;12030;50.376;8.762;2022-07-04T01:05:38;16.90;99.90
23703;DHT22;12030;50.376;8.762;2022-07-04T01:08:04;16.80;99.90
23703;DHT22;12030;50.376;8.762;2022-07-04T01:10:30;16.70;99.90
23703;DHT22;12030;50.376;8.762;2022-07-04T01:12:56;16.80;99.90
23703;DHT22;12030;50.376;8.762;2022-07-04T01:15:21;16.70;99.90
23703;DHT22;12030;50.376;8.762;2022-07-04T01:17:47;16.70;99.90
23703;DHT22;12030;50.376;8.762;2022-07-04T01:20:13;16.70;99.90
23703;DHT22;12030;50.376;8.762;2022-07-04T01:22:39;16.60;99.90
23703;DHT22;12030;50.376;8.762;2022-07-04T01:25:05;16.50;99.90
23703;DHT22;12030;50.376;8.762;2022-07-04T01:27:31;16.40;99.90
23703;DHT22;12030;50.376;8.762;2022-07-04T01:29:56;16.30;99.90
23703;DHT22;12030;50.376;8.762;2022-07-04T01:32:22;16.30;99.90
23703;DHT22;12030;50.376;8.762;2022-07-04T01:34:47;16.30;99.90
23703;DHT22;12030;50.376;8.762;2022-07-04T01:37:13;16.40;99.90
23703;DHT22;12030;50.376;8.762;2022-07-04T01:39:39;16.40;99.90
23703;DHT22;12030;50.376;8.762;2022-07-04T01:42:05;16.30;99.90
23703;DHT22;12030;50.376;8.762;2022-07-04T01:44:31;16.20;99.90
23703;DHT22;12030;50.376;8.762;2022-07-04T01:46:56;16.10;99.90
23703;DHT22;12030;50.376;8.762;2022-07-04T01:49:22;16.10;99.90
23703;DHT22;12030;50.376;8.762;2022-07-04T01:51:49;16.00;99.90
23703;DHT22;12030;50.376;8.762;2022-07-04T01:54:15;16.00;99.90
23703;DHT22;12030;50.376;8.762;2022-07-04T01:56:41;15.90;99.90
23703;DHT22;12030;50.376;8.762;2022-07-04T01:59:08;15.80;99.90
23703;DHT22;12030;50.376;8.762;2022-07-04T02:01:33;15.70;99.90
23703;DHT22;12030;50.376;8.762;2022-07-04T02:04:02;15.60;99.90
23703;DHT22;12030;50.376;8.762;2022-07-04T02:06:28;15.60;99.90
23703;DHT22;12030;50.376;8.762;2022-07-04T02:08:54;15.50;99.90
23703;DHT22;12030;50.376;8.762;2022-07-04T02:11:39;15.40;99.90
23703;DHT22;12030;50.376;8.762;2022-07-04T02:14:23;15.30;99.90
23703;DHT22;12030;50.376;8.762;2022-07-04T02:16:49;15.20;99.90
23703;DHT22;12030;50.376;8.762;2022-07-04T02:19:15;15.20;99.90
23703;DHT22;12030;50.376;8.762;2022-07-04T02:21:42;15.10;99.90
23703;DHT22;12030;50.376;8.762;2022-07-04T02:24:07;15.00;99.90
23703;DHT22;12030;50.376;8.762;2022-07-04T02:26:33;14.90;99.90
23703;DHT22;12030;50.376;8.762;2022-07-04T02:28:58;14.90;99.90
23703;DHT22;12030;50.376;8.762;2022-07-04T02:31:24;15.00;99.90
23703;DHT22;12030;50.376;8.762;2022-07-04T02:33:50;15.00;99.90
23703;DHT22;12030;50.376;8.762;2022-07-04T02:36:15;15.10;99.90
23703;DHT22;12030;50.376;8.762;2022-07-04T02:38:41;15.10;99.90
23703;DHT22;12030;50.376;8.762;2022-07-04T02:41:06;15.10;99.90
23703;DHT22;12030;50.376;8.762;2022-07-04T02:43:32;15.00;99.90
23703;DHT22;12030;50.376;8.762;2022-07-04T02:45:57;14.90;99.90
23703;DHT22;12030;50.376;8.762;2022-07-04T02:48:23;14.90;99.90
23703;DHT22;12030;50.376;8.762;2022-07-04T02:50:48;14.80;99.90
23703;DHT22;12030;50.376;8.762;2022-07-04T02:53:14;14.70;99.90
23703;DHT22;12030;50.376;8.762;2022-07-04T02:55:39;14.60;99.90
23703;DHT22;12030;50.376;8.762;2022-07-04T02:58:05;14.50;99.90
23703;DHT22;12030;50.376;8.762;2022-07-04T03:00:30;14.50;99.90
23703;DHT22;12030;50.376;8.762;2022-07-04T03:02:56;14.50;99.90
23703;DHT22;12030;50.376;8.762;2022-07-04T03:05:22;14.50;99.90
23703;DHT22;12030;50.376;8.762;2022-07-04T03:07:47;14.50;99.90
23703;DHT22;12030;50.376;8.762;2022-07-04T03:10:13;14.50;99.90
23703;DHT22;12030;50.376;8.762;2022-07-04T03:12:38;14.60;99.90
23703;DHT22;12030;50.376;8.762;2022-07-04T03:15:04;14.70;99.90
23703;DHT22;12030;50.376;8.762;2022-07-04T03:17:30;14.80;99.90
23703;DHT22;12030;50.376;8.762;2022-07-04T03:19:56;14.80;99.90
23703;DHT22;12030;50.376;8.762;2022-07-04T03:22:22;14.80;99.90
23703;DHT22;12030;50.376;8.762;2022-07-04T03:24:48;14.70;99.90
23703;DHT22;12030;50.376;8.762;2022-07-04T03:27:13;14.70;99.90
23703;DHT22;12030;50.376;8.762;2022-07-04T03:29:39;14.70;99.90
23703;DHT22;12030;50.376;8.762;2022-07-04T03:32:05;14.80;99.90
23703;DHT22;12030;50.376;8.762;2022-07-04T03:34:31;14.80;99.90
23703;DHT22;12030;50.376;8.762;2022-07-04T03:36:56;14.90;99.90
23703;DHT22;12030;50.376;8.762;2022-07-04T03:39:22;14.90;99.90
23703;DHT22;12030;50.376;8.762;2022-07-04T03:41:48;14.80;99.90
23703;DHT22;12030;50.376;8.762;2022-07-04T03:44:13;14.90;99.90
23703;DHT22;12030;50.376;8.762;2022-07-04T03:46:39;14.90;99.90
23703;DHT22;12030;50.376;8.762;2022-07-04T03:49:05;14.90;99.90
23703;DHT22;12030;50.376;8.762;2022-07-04T03:51:31;14.90;99.90
23703;DHT22;12030;50.376;8.762;2022-07-04T03:53:56;14.90;99.90
23703;DHT22;12030;50.376;8.762;2022-07-04T03:56:22;14.90;99.90
23703;DHT22;12030;50.376;8.762;2022-07-04T03:58:48;15.00;99.90
23703;DHT22;12030;50.376;8.762;2022-07-04T04:01:17;15.00;99.90
23703;DHT22;12030;50.376;8.762;2022-07-04T04:03:44;15.00;99.90
23703;DHT22;12030;50.376;8.762;2022-07-04T04:06:29;15.00;99.90
23703;DHT22;12030;50.376;8.762;2022-07-04T04:08:55;15.00;99.90
23703;DHT22;12030;50.376;8.762;2022-07-04T04:11:21;15.10;99.90
23703;DHT22;12030;50.376;8.762;2022-07-04T04:13:46;15.10;99.90
23703;DHT22;12030;50.376;8.762;2022-07-04T04:16:12;15.10;99.90
23703;DHT22;12030;50.376;8.762;2022-07-04T04:18:37;15.10;99.90
23703;DHT22;12030;50.376;8.762;2022-07-04T04:21:04;15.20;99.90
23703;DHT22;12030;50.376;8.762;2022-07-04T04:23:29;15.20;99.90
23703;DHT22;12030;50.376;8.762;2022-07-04T04:25:55;15.30;99.90
23703;DHT22;12030;50.376;8.762;2022-07-04T04:28:21;15.20;99.90
23703;DHT22;12030;50.376;8.762;2022-07-04T04:30:47;15.20;99.90
23703;DHT22;12030;50.376;8.762;2022-07-04T04:33:12;15.20;99.90
23703;DHT22;12030;50.376;8.762;2022-07-04T04:35:38;15.30;99.90
23703;DHT22;12030;50.376;8.762;2022-07-04T04:38:03;15.30;99.90
23703;DHT22;12030;50.376;8.762;2022-07-04T04:40:29;15.30;99.90
23703;DHT22;12030;50.376;8.762;2022-07-04T04:42:55;15.30;99.90
23703;DHT22;12030;50.376;8.762;2022-07-04T04:45:21;15.30;99.90
23703;DHT22;12030;50.376;8.762;2022-07-04T04:47:46;15.30;99.90
23703;DHT22;12030;50.376;8.762;2022-07-04T04:50:12;15.30;99.90
23703;DHT22;12030;50.376;8.762;2022-07-04T04:52:43;15.40;99.90
23703;DHT22;12030;50.376;8.762;2022-07-04T04:55:09;15.40;99.90
23703;DHT22;12030;50.376;8.762;2022-07-04T04:57:34;15.40;99.90
23703;DHT22;12030;50.376;8.762;2022-07-04T05:00:00;15.50;99.90
23703;DHT22;12030;50.376;8.762;2022-07-04T05:02:26;15.60;99.90
23703;DHT22;12030;50.376;8.762;2022-07-04T05:04:52;15.70;99.90
23703;DHT22;12030;50.376;8.762;2022-07-04T05:07:18;15.70;99.90
23703;DHT22;12030;50.376;8.762;2022-07-04T05:09:44;15.80;99.90
23703;DHT22;12030;50.376;8.762;2022-07-04T05:12:09;15.90;99.90
23703;DHT22;12030;50.376;8.762;2022-07-04T05:14:35;15.90;99.90
23703;DHT22;12030;50.376;8.762;2022-07-04T05:17:00;16.00;99.90
23703;DHT22;12030;50.376;8.762;2022-07-04T05:19:26;16.10;99.90
23703;DHT22;12030;50.376;8.762;2022-07-04T05:21:51;16.20;99.90
23703;DHT22;12030;50.376;8.762;2022-07-04T05:24:17;16.30;99.90
23703;DHT22;12030;50.376;8.762;2022-07-04T05:26:42;16.40;99.90
23703;DHT22;12030;50.376;8.762;2022-07-04T05:29:08;16.50;99.90
23703;DHT22;12030;50.376;8.762;2022-07-04T05:31:34;16.60;99.90
23703;DHT22;12030;50.376;8.762;2022-07-04T05:33:59;16.80;99.90
23703;DHT22;12030;50.376;8.762;2022-07-04T05:36:25;16.90;99.90
23703;DHT22;12030;50.376;8.762;2022-07-04T05:38:51;17.00;99.90
23703;DHT22;12030;50.376;8.762;2022-07-04T05:41:24;17.00;99.90
23703;DHT22;12030;50.376;8.762;2022-07-04T05:43:50;17.10;99.90
23703;DHT22;12030;50.376;8.762;2022-07-04T05:46:15;17.20;99.90
23703;DHT22;12030;50.376;8.762;2022-07-04T05:48:41;17.40;99.90
23703;DHT22;12030;50.376;8.762;2022-07-04T05:51:07;17.40;99.90
23703;DHT22;12030;50.376;8.762;2022-07-04T05:53:33;17.60;99.90
23703;DHT22;12030;50.376;8.762;2022-07-04T05:55:59;17.60;99.90
23703;DHT22;12030;50.376;8.762;2022-07-04T05:58:24;17.80;99.90
23703;DHT22;12030;50.376;8.762;2022-07-04T06:00:50;17.90;99.90
23703;DHT22;12030;50.376;8.762;2022-07-04T06:03:15;18.00;99.90
23703;DHT22;12030;50.376;8.762;2022-07-04T06:05:41;18.10;99.90
23703;DHT22;12030;50.376;8.762;2022-07-04T06:08:07;18.30;99.90
23703;DHT22;12030;50.376;8.762;2022-07-04T06:10:32;18.30;99.90
23703;DHT22;12030;50.376;8.762;2022-07-04T06:12:58;18.50;99.90
23703;DHT22;12030;50.376;8.762;2022-07-04T06:15:24;18.60;99.90
23703;DHT22;12030;50.376;8.762;2022-07-04T06:17:50;18.70;99.90
23703;DHT22;12030;50.376;8.762;2022-07-04T06:20:15;18.80;99.90
23703;DHT22;12030;50.376;8.762;2022-07-04T06:22:42;18.90;99.90
23703;DHT22;12030;50.376;8.762;2022-07-04T06:25:12;18.90;99.90
23703;DHT22;12030;50.376;8.762;2022-07-04T06:27:38;19.00;99.90
23703;DHT22;12030;50.376;8.762;2022-07-04T06:30:05;19.00;99.90
23703;DHT22;12030;50.376;8.762;2022-07-04T06:32:44;19.20;99.90
23703;DHT22;12030;50.376;8.762;2022-07-04T06:35:09;19.20;99.90
23703;DHT22;12030;50.376;8.762;2022-07-04T06:37:54;19.20;99.90
23703;DHT22;12030;50.376;8.762;2022-07-04T06:40:19;19.30;99.90
23703;DHT22;12030;50.376;8.762;2022-07-04T06:42:45;19.30;99.90
23703;DHT22;12030;50.376;8.762;2022-07-04T06:45:10;19.40;99.90
23703;DHT22;12030;50.376;8.762;2022-07-04T06:47:36;19.40;99.90
23703;DHT22;12030;50.376;8.762;2022-07-04T06:50:01;19.40;99.90
23703;DHT22;12030;50.376;8.762;2022-07-04T06:52:27;19.60;99.90
23703;DHT22;12030;50.376;8.762;2022-07-04T06:54:52;19.60;99.90
23703;DHT22;12030;50.376;8.762;2022-07-04T06:57:18;19.70;99.90
23703;DHT22;12030;50.376;8.762;2022-07-04T06:59:43;19.80;99.90
23703;DHT22;12030;50.376;8.762;2022-07-04T07:02:09;19.90;99.70
23703;DHT22;12030;50.376;8.762;2022-07-04T07:04:34;20.10;99.50
23703;DHT22;12030;50.376;8.762;2022-07-04T07:07:00;20.10;99.10
23703;DHT22;12030;50.376;8.762;2022-07-04T07:09:25;20.10;98.60
23703;DHT22;12030;50.376;8.762;2022-07-04T07:11:51;20.10;98.90
23703;DHT22;12030;50.376;8.762;2022-07-04T07:14:16;20.30;98.90
23703;DHT22;12030;50.376;8.762;2022-07-04T07:16:42;20.30;98.00
23703;DHT22;12030;50.376;8.762;2022-07-04T07:19:07;20.40;98.30
23703;DHT22;12030;50.376;8.762;2022-07-04T07:21:33;20.40;97.30
23703;DHT22;12030;50.376;8.762;2022-07-04T07:23:58;20.50;96.30
23703;DHT22;12030;50.376;8.762;2022-07-04T07:26:25;20.50;96.10
23703;DHT22;12030;50.376;8.762;2022-07-04T07:28:51;20.60;96.80
23703;DHT22;12030;50.376;8.762;2022-07-04T07:31:16;20.70;97.60
23703;DHT22;12030;50.376;8.762;2022-07-04T07:33:42;20.90;97.10
23703;DHT22;12030;50.376;8.762;2022-07-04T07:36:08;20.90;96.10
23703;DHT22;12030;50.376;8.762;2022-07-04T07:38:33;22.60;97.10
23703;DHT22;12030;50.376;8.762;2022-07-04T07:40:59;21.10;96.50
23703;DHT22;12030;50.376;8.762;2022-07-04T07:43:24;21.10;96.20
23703;DHT22;12030;50.376;8.762;2022-07-04T07:45:50;21.10;95.90
23703;DHT22;12030;50.376;8.762;2022-07-04T07:48:15;21.10;95.10
23703;DHT22;12030;50.376;8.762;2022-07-04T07:50:41;21.20;95.10
23703;DHT22;12030;50.376;8.762;2022-07-04T07:53:07;21.30;95.60
23703;DHT22;12030;50.376;8.762;2022-07-04T07:55:32;21.40;94.70
23703;DHT22;12030;50.376;8.762;2022-07-04T07:57:58;21.40;94.60
23703;DHT22;12030;50.376;8.762;2022-07-04T08:00:25;21.50;95.60
23703;DHT22;12030;50.376;8.762;2022-07-04T08:02:50;21.50;95.70
23703;DHT22;12030;50.376;8.762;2022-07-04T08:05:35;21.50;94.80
23703;DHT22;12030;50.376;8.762;2022-07-04T08:08:00;21.40;94.40
23703;DHT22;12030;50.376;8.762;2022-07-04T08:10:26;21.50;93.90
23703;DHT22;12030;50.376;8.762;2022-07-04T08:12:52;21.70;94.30
23703;DHT22;12030;50.376;8.762;2022-07-04T08:15:18;21.70;94.40
23703;DHT22;12030;50.376;8.762;2022-07-04T08:17:43;21.80;94.40
23703;DHT22;12030;50.376;8.762;2022-07-04T08:20:10;21.70;93.60
23703;DHT22;12030;50.376;8.762;2022-07-04T08:22:36;21.80;93.30
23703;DHT22;12030;50.376;8.762;2022-07-04T08:25:01;21.90;94.00
23703;DHT22;12030;50.376;8.762;2022-07-04T08:27:27;21.80;93.10
23703;DHT22;12030;50.376;8.762;2022-07-04T08:29:53;21.90;92.30
23703;DHT22;12030;50.376;8.762;2022-07-04T08:32:18;22.00;93.10
23703;DHT22;12030;50.376;8.762;2022-07-04T08:34:44;22.10;91.60
23703;DHT22;12030;50.376;8.762;2022-07-04T08:37:09;22.20;91.10
23703;DHT22;12030;50.376;8.762;2022-07-04T08:39:35;22.20;92.20
23703;DHT22;12030;50.376;8.762;2022-07-04T08:42:06;22.20;92.50
23703;DHT22;12030;50.376;8.762;2022-07-04T08:44:39;22.30;92.40
23703;DHT22;12030;50.376;8.762;2022-07-04T08:47:08;22.10;90.30
23703;DHT22;12030;50.376;8.762;2022-07-04T08:49:34;22.30;90.60
23703;DHT22;12030;50.376;8.762;2022-07-04T08:52:04;22.40;90.20
23703;DHT22;12030;50.376;8.762;2022-07-04T08:54:32;22.50;90.20
23703;DHT22;12030;50.376;8.762;2022-07-04T08:57:16;22.60;90.90
23703;DHT22;12030;50.376;8.762;2022-07-04T09:00:00;22.70;91.40
23703;DHT22;12030;50.376;8.762;2022-07-04T09:02:29;22.80;91.50
23703;DHT22;12030;50.376;8.762;2022-07-04T09:04:55;22.90;91.80
23703;DHT22;12030;50.376;8.762;2022-07-04T09:07:20;23.00;92.20
23703;DHT22;12030;50.376;8.762;2022-07-04T09:09:46;22.90;88.80
23703;DHT22;12030;50.376;8.762;2022-07-04T09:12:12;22.90;90.40
23703;DHT22;12030;50.376;8.762;2022-07-04T09:14:38;23.10;91.70
23703;DHT22;12030;50.376;8.762;2022-07-04T09:17:05;23.20;90.50
23703;DHT22;12030;50.376;8.762;2022-07-04T09:19:31;23.30;92.70
23703;DHT22;12030;50.376;8.762;2022-07-04T09:22:05;23.30;91.10
23703;DHT22;12030;50.376;8.762;2022-07-04T09:24:47;23.40;90.70
23703;DHT22;12030;50.376;8.762;2022-07-04T09:27:35;23.30;91.60
23703;DHT22;12030;50.376;8.762;2022-07-04T09:30:02;23.40;88.80
23703;DHT22;12030;50.376;8.762;2022-07-04T09:32:48;23.40;87.10
23703;DHT22;12030;50.376;8.762;2022-07-04T09:35:17;23.50;88.20
23703;DHT22;12030;50.376;8.762;2022-07-04T09:37:45;23.50;85.00
23703;DHT22;12030;50.376;8.762;2022-07-04T09:42:54;23.40;86.20
23703;DHT22;12030;50.376;8.762;2022-07-04T09:45:21;23.40;85.90
23703;DHT22;12030;50.376;8.762;2022-07-04T09:47:50;23.50;85.70
23703;DHT22;12030;50.376;8.762;2022-07-04T09:50:19;23.60;86.60
23703;DHT22;12030;50.376;8.762;2022-07-04T09:52:48;23.60;87.80
23703;DHT22;12030;50.376;8.762;2022-07-04T09:55:20;23.50;85.10
23703;DHT22;12030;50.376;8.762;2022-07-04T09:57:46;23.50;85.00
23703;DHT22;12030;50.376;8.762;2022-07-04T10:00:27;23.50;86.00
23703;DHT22;12030;50.376;8.762;2022-07-04T10:02:54;23.40;88.40
23703;DHT22;12030;50.376;8.762;2022-07-04T10:05:23;23.50;88.50
23703;DHT22;12030;50.376;8.762;2022-07-04T10:07:48;23.60;88.90
23703;DHT22;12030;50.376;8.762;2022-07-04T10:10:30;23.80;87.40
23703;DHT22;12030;50.376;8.762;2022-07-04T10:13:02;23.70;85.70
23703;DHT22;12030;50.376;8.762;2022-07-04T10:15:28;23.70;84.40
23703;DHT22;12030;50.376;8.762;2022-07-04T10:17:54;23.80;86.50
23703;DHT22;12030;50.376;8.762;2022-07-04T10:20:20;23.80;82.70
23703;DHT22;12030;50.376;8.762;2022-07-04T10:22:46;23.70;81.10
23703;DHT22;12030;50.376;8.762;2022-07-04T10:25:11;23.90;89.70
23703;DHT22;12030;50.376;8.762;2022-07-04T10:27:38;23.90;81.10
23703;DHT22;12030;50.376;8.762;2022-07-04T10:30:06;24.00;80.30
23703;DHT22;12030;50.376;8.762;2022-07-04T10:32:33;24.20;84.70
23703;DHT22;12030;50.376;8.762;2022-07-04T10:34:59;24.20;85.10
23703;DHT22;12030;50.376;8.762;2022-07-04T10:37:24;24.40;86.30
23703;DHT22;12030;50.376;8.762;2022-07-04T10:39:51;24.40;82.10
23703;DHT22;12030;50.376;8.762;2022-07-04T10:42:26;24.50;81.90
23703;DHT22;12030;50.376;8.762;2022-07-04T10:45:00;24.50;81.70
23703;DHT22;12030;50.376;8.762;2022-07-04T10:47:26;24.60;83.70
23703;DHT22;12030;50.376;8.762;2022-07-04T10:49:56;24.60;84.90
23703;DHT22;12030;50.376;8.762;2022-07-04T10:52:22;24.60;81.10
23703;DHT22;12030;50.376;8.762;2022-07-04T10:54:47;24.60;83.70
23703;DHT22;12030;50.376;8.762;2022-07-04T10:59:43;24.60;84.00
23703;DHT22;12030;50.376;8.762;2022-07-04T11:17:55;24.60;74.30
23703;DHT22;12030;50.376;8.762;2022-07-04T11:20:23;24.80;75.60
23703;DHT22;12030;50.376;8.762;2022-07-04T11:22:49;24.60;74.80
23703;DHT22;12030;50.376;8.762;2022-07-04T11:25:15;24.90;74.80
23703;DHT22;12030;50.376;8.762;2022-07-04T11:27:41;25.00;73.40
23703;DHT22;12030;50.376;8.762;2022-07-04T11:30:08;25.00;75.90
23703;DHT22;12030;50.376;8.762;2022-07-04T11:32:35;25.10;81.40
23703;DHT22;12030;50.376;8.762;2022-07-04T11:35:03;25.40;83.70
23703;DHT22;12030;50.376;8.762;2022-07-04T11:37:29;25.30;74.10
23703;DHT22;12030;50.376;8.762;2022-07-04T11:39:55;25.30;73.70
23703;DHT22;12030;50.376;8.762;2022-07-04T11:43:04;25.30;74.60
23703;DHT22;12030;50.376;8.762;2022-07-04T11:45:49;25.60;81.50
23703;DHT22;12030;50.376;8.762;2022-07-04T11:48:25;25.70;77.50
23703;DHT22;12030;50.376;8.762;2022-07-04T11:50:51;25.90;77.70
23703;DHT22;12030;50.376;8.762;2022-07-04T11:53:17;26.00;76.40
23703;DHT22;12030;50.376;8.762;2022-07-04T11:55:58;25.90;72.60
23703;DHT22;12030;50.376;8.762;2022-07-04T11:58:42;26.00;72.70
23703;DHT22;12030;50.376;8.762;2022-07-04T12:01:09;26.20;78.60
23703;DHT22;12030;50.376;8.762;2022-07-04T12:03:35;26.20;77.00
23703;DHT22;12030;50.376;8.762;2022-07-04T12:06:04;26.20;75.90
23703;DHT22;12030;50.376;8.762;2022-07-04T12:08:31;26.20;77.70
23703;DHT22;12030;50.376;8.762;2022-07-04T12:10:57;26.40;74.30
23703;DHT22;12030;50.376;8.762;2022-07-04T12:13:23;26.50;76.80
23703;DHT22;12030;50.376;8.762;2022-07-04T12:15:50;26.70;76.00
23703;DHT22;12030;50.376;8.762;2022-07-04T12:18:28;26.90;75.00
23703;DHT22;12030;50.376;8.762;2022-07-04T12:21:14;27.00;72.70
23703;DHT22;12030;50.376;8.762;2022-07-04T12:23:52;27.00;72.90
23703;DHT22;12030;50.376;8.762;2022-07-04T12:26:18;27.10;76.00
23703;DHT22;12030;50.376;8.762;2022-07-04T12:28:43;27.40;78.90
23703;DHT22;12030;50.376;8.762;2022-07-04T12:31:09;27.50;74.90
23703;DHT22;12030;50.376;8.762;2022-07-04T12:33:35;27.40;69.60
23703;DHT22;12030;50.376;8.762;2022-07-04T12:36:05;27.00;65.60
23703;DHT22;12030;50.376;8.762;2022-07-04T12:38:36;27.30;68.90
23703;DHT22;12030;50.376;8.762;2022-07-04T12:41:12;27.30;69.50
23703;DHT22;12030;50.376;8.762;2022-07-04T12:46:08;27.30;67.50
23703;DHT22;12030;50.376;8.762;2022-07-04T12:48:35;26.80;67.10
23703;DHT22;12030;50.376;8.762;2022-07-04T12:51:36;26.90;67.80
23703;DHT22;12030;50.376;8.762;2022-07-04T12:54:09;27.00;66.80
23703;DHT22;12030;50.376;8.762;2022-07-04T12:56:40;27.10;71.10
23703;DHT22;12030;50.376;8.762;2022-07-04T12:59:13;27.30;67.50
23703;DHT22;12030;50.376;8.762;2022-07-04T13:01:40;27.10;69.50
23703;DHT22;12030;50.376;8.762;2022-07-04T13:04:06;27.40;69.70
23703;DHT22;12030;50.376;8.762;2022-07-04T13:06:33;27.50;66.00
23703;DHT22;12030;50.376;8.762;2022-07-04T13:08:59;27.70;66.10
23703;DHT22;12030;50.376;8.762;2022-07-04T13:11:26;28.00;67.30
23703;DHT22;12030;50.376;8.762;2022-07-04T13:14:10;28.40;71.70
23703;DHT22;12030;50.376;8.762;2022-07-04T13:16:35;28.80;70.80
23703;DHT22;12030;50.376;8.762;2022-07-04T13:19:01;28.70;66.60
23703;DHT22;12030;50.376;8.762;2022-07-04T13:21:27;28.90;69.40
23703;DHT22;12030;50.376;8.762;2022-07-04T13:23:52;28.90;69.10
23703;DHT22;12030;50.376;8.762;2022-07-04T13:26:18;28.90;68.10
23703;DHT22;12030;50.376;8.762;2022-07-04T13:28:44;28.90;65.90
23703;DHT22;12030;50.376;8.762;2022-07-04T13:31:10;29.10;67.50
23703;DHT22;12030;50.376;8.762;2022-07-04T13:33:35;28.60;63.00
23703;DHT22;12030;50.376;8.762;2022-07-04T13:36:01;29.00;67.30
23703;DHT22;12030;50.376;8.762;2022-07-04T13:38:27;29.40;70.90
23703;DHT22;12030;50.376;8.762;2022-07-04T13:40:52;29.60;67.30
23703;DHT22;12030;50.376;8.762;2022-07-04T13:43:18;29.80;64.90
23703;DHT22;12030;50.376;8.762;2022-07-04T13:45:44;29.80;62.90
23703;DHT22;12030;50.376;8.762;2022-07-04T13:48:12;30.00;65.80
23703;DHT22;12030;50.376;8.762;2022-07-04T13:50:38;29.70;66.30
23703;DHT22;12030;50.376;8.762;2022-07-04T13:53:08;29.70;69.40
23703;DHT22;12030;50.376;8.762;2022-07-04T13:55:34;29.90;68.40
23703;DHT22;12030;50.376;8.762;2022-07-04T13:58:04;30.30;68.80
23703;DHT22;12030;50.376;8.762;2022-07-04T14:00:30;30.30;65.70
23703;DHT22;12030;50.376;8.762;2022-07-04T14:02:56;30.30;66.70
23703;DHT22;12030;50.376;8.762;2022-07-04T14:05:21;30.70;65.60
23703;DHT22;12030;50.376;8.762;2022-07-04T14:07:47;30.60;62.30
23703;DHT22;12030;50.376;8.762;2022-07-04T14:10:13;30.90;68.70
23703;DHT22;12030;50.376;8.762;2022-07-04T14:12:39;31.10;63.20
23703;DHT22;12030;50.376;8.762;2022-07-04T14:15:05;31.30;64.50
23703;DHT22;12030;50.376;8.762;2022-07-04T14:17:31;31.40;62.20
23703;DHT22;12030;50.376;8.762;2022-07-04T14:19:57;30.90;61.00
23703;DHT22;12030;50.376;8.762;2022-07-04T14:22:22;30.90;61.00
23703;DHT22;12030;50.376;8.762;2022-07-04T14:24:48;30.80;60.10
23703;DHT22;12030;50.376;8.762;2022-07-04T14:27:14;30.40;57.60
23703;DHT22;12030;50.376;8.762;2022-07-04T14:29:39;30.20;58.90
23703;DHT22;12030;50.376;8.762;2022-07-04T14:32:06;30.30;58.80
23703;DHT22;12030;50.376;8.762;2022-07-04T14:34:32;30.00;58.40
23703;DHT22;12030;50.376;8.762;2022-07-04T14:36:58;29.90;56.20
23703;DHT22;12030;50.376;8.762;2022-07-04T14:39:24;30.00;55.80
23703;DHT22;12030;50.376;8.762;2022-07-04T14:41:49;30.40;62.60
23703;DHT22;12030;50.376;8.762;2022-07-04T14:44:15;30.80;61.70
23703;DHT22;12030;50.376;8.762;2022-07-04T14:46:41;30.60;58.80
23703;DHT22;12030;50.376;8.762;2022-07-04T14:49:06;30.60;57.70
23703;DHT22;12030;50.376;8.762;2022-07-04T14:51:32;29.80;55.80
23703;DHT22;12030;50.376;8.762;2022-07-04T14:53:57;30.30;60.90
23703;DHT22;12030;50.376;8.762;2022-07-04T14:56:23;30.10;57.10
23703;DHT22;12030;50.376;8.762;2022-07-04T14:58:49;30.40;58.90
23703;DHT22;12030;50.376;8.762;2022-07-04T15:01:14;30.60;60.50
23703;DHT22;12030;50.376;8.762;2022-07-04T15:03:40;30.50;60.30
23703;DHT22;12030;50.376;8.762;2022-07-04T15:06:06;30.60;62.20
23703;DHT22;12030;50.376;8.762;2022-07-04T15:08:31;30.80;61.60
23703;DHT22;12030;50.376;8.762;2022-07-04T15:10:57;30.90;59.80
23703;DHT22;12030;50.376;8.762;2022-07-04T15:13:22;31.10;60.10
23703;DHT22;12030;50.376;8.762;2022-07-04T15:15:48;31.30;59.20
23703;DHT22;12030;50.376;8.762;2022-07-04T15:18:13;30.90;61.50
23703;DHT22;12030;50.376;8.762;2022-07-04T15:20:39;30.50;59.20
23703;DHT22;12030;50.376;8.762;2022-07-04T15:23:23;30.60;61.80
23703;DHT22;12030;50.376;8.762;2022-07-04T15:26:07;30.60;58.80
23703;DHT22;12030;50.376;8.762;2022-07-04T15:28:32;29.00;58.80
23703;DHT22;12030;50.376;8.762;2022-07-04T15:30:58;30.70;61.00
23703;DHT22;12030;50.376;8.762;2022-07-04T15:33:26;30.50;59.00
23703;DHT22;12030;50.376;8.762;2022-07-04T15:35:53;30.20;59.40
23703;DHT22;12030;50.376;8.762;2022-07-04T15:38:20;30.40;61.70
23703;DHT22;12030;50.376;8.762;2022-07-04T15:40:46;30.50;58.90
23703;DHT22;12030;50.376;8.762;2022-07-04T15:43:12;30.60;59.40
23703;DHT22;12030;50.376;8.762;2022-07-04T15:45:38;30.40;60.70
23703;DHT22;12030;50.376;8.762;2022-07-04T15:48:04;30.50;58.00
23703;DHT22;12030;50.376;8.762;2022-07-04T15:50:29;30.70;58.30
23703;DHT22;12030;50.376;8.762;2022-07-04T15:52:55;31.00;59.90
23703;DHT22;12030;50.376;8.762;2022-07-04T15:55:21;30.60;58.80